sensor_id;sensor_type;location;lat;lon;timestamp;temperature;humidity
8936;DHT22;4503;47.810;13.072;2022-08-30T00:01:21;20.90;88.50
8936;DHT22;4503;47.810;13.072;2022-08-30T00:03:49;20.90;88.50
8936;DHT22;4503;47.810;13.072;2022-08-30T00:06:17;20.80;88.40
8936;DHT22;4503;47.810;13.072;2022-08-30T00:08:45;20.80;88.30
8936;DHT22;4503;47.810;13.072;2022-08-30T00:11:20;20.80;88.40
8936;DHT22;4503;47.810;13.072;2022-08-30T00:13:50;20.80;88.40
8936;DHT22;4503;47.810;13.072;2022-08-30T00:16:20;20.80;88.50
8936;DHT22;4503;47.810;13.072;2022-08-30T00:18:48;20.70;88.60
8936;DHT22;4503;47.810;13.072;2022-08-30T00:21:14;20.70;88.80
8936;DHT22;4503;47.810;13.072;2022-08-30T00:23:40;20.70;89.00
8936;DHT22;4503;47.810;13.072;2022-08-30T00:26:07;20.70;89.10
8936;DHT22;4503;47.810;13.072;2022-08-30T00:28:33;20.70;89.30
8936;DHT22;4503;47.810;13.072;2022-08-30T00:31:01;20.70;89.40
8936;DHT22;4503;47.810;13.072;2022-08-30T00:33:28;20.60;89.40
8936;DHT22;4503;47.810;13.072;2022-08-30T00:35:54;20.60;89.50
8936;DHT22;4503;47.810;13.072;2022-08-30T00:38:20;20.60;89.50
8936;DHT22;4503;47.810;13.072;2022-08-30T00:40:48;20.60;89.70
8936;DHT22;4503;47.810;13.072;2022-08-30T00:43:25;20.60;89.70
8936;DHT22;4503;47.810;13.072;2022-08-30T00:45:53;20.60;89.80
8936;DHT22;4503;47.810;13.072;2022-08-30T00:48:19;20.60;89.60
8936;DHT22;4503;47.810;13.072;2022-08-30T00:50:48;20.60;89.70
8936;DHT22;4503;47.810;13.072;2022-08-30T00:53:23;20.50;89.60
8936;DHT22;4503;47.810;13.072;2022-08-30T00:55:53;20.50;89.80
8936;DHT22;4503;47.810;13.072;2022-08-30T00:58:26;20.50;89.90
8936;DHT22;4503;47.810;13.072;2022-08-30T01:00:57;20.50;90.00
8936;DHT22;4503;47.810;13.072;2022-08-30T01:03:26;20.50;90.00
8936;DHT22;4503;47.810;13.072;2022-08-30T01:05:53;20.50;89.90
8936;DHT22;4503;47.810;13.072;2022-08-30T01:08:21;20.40;89.90
8936;DHT22;4503;47.810;13.072;2022-08-30T01:10:49;20.40;90.00
8936;DHT22;4503;47.810;13.072;2022-08-30T01:13:19;20.40;90.00
8936;DHT22;4503;47.810;13.072;2022-08-30T01:15:47;20.40;90.00
8936;DHT22;4503;47.810;13.072;2022-08-30T01:22:38;20.30;90.10
8936;DHT22;4503;47.810;13.072;2022-08-30T01:25:12;20.30;90.10
8936;DHT22;4503;47.810;13.072;2022-08-30T01:27:51;20.30;90.00
8936;DHT22;4503;47.810;13.072;2022-08-30T01:30:20;20.30;90.10
8936;DHT22;4503;47.810;13.072;2022-08-30T01:32:49;20.20;90.10
8936;DHT22;4503;47.810;13.072;2022-08-30T01:35:20;20.20;90.20
8936;DHT22;4503;47.810;13.072;2022-08-30T01:37:47;20.20;90.20
8936;DHT22;4503;47.810;13.072;2022-08-30T01:40:16;20.10;90.20
8936;DHT22;4503;47.810;13.072;2022-08-30T01:42:44;20.10;90.20
8936;DHT22;4503;47.810;13.072;2022-08-30T01:45:10;20.10;90.30
8936;DHT22;4503;47.810;13.072;2022-08-30T01:47:37;20.10;90.30
8936;DHT22;4503;47.810;13.072;2022-08-30T01:50:05;20.10;90.40
8936;DHT22;4503;47.810;13.072;2022-08-30T01:52:32;20.10;90.40
8936;DHT22;4503;47.810;13.072;2022-08-30T01:54:59;20.10;90.40
8936;DHT22;4503;47.810;13.072;2022-08-30T01:57:25;20.10;90.40
8936;DHT22;4503;47.810;13.072;2022-08-30T01:59:52;20.00;90.40
8936;DHT22;4503;47.810;13.072;2022-08-30T02:02:21;20.00;90.40
8936;DHT22;4503;47.810;13.072;2022-08-30T02:04:50;20.00;90.40
8936;DHT22;4503;47.810;13.072;2022-08-30T02:07:19;20.00;90.40
8936;DHT22;4503;47.810;13.072;2022-08-30T02:09:45;20.00;90.40
8936;DHT22;4503;47.810;13.072;2022-08-30T02:12:11;20.00;90.50
8936;DHT22;4503;47.810;13.072;2022-08-30T02:14:38;20.00;90.60
8936;DHT22;4503;47.810;13.072;2022-08-30T02:24:32;19.90;90.60
8936;DHT22;4503;47.810;13.072;2022-08-30T02:26:58;19.80;90.60
8936;DHT22;4503;47.810;13.072;2022-08-30T02:29:25;19.80;90.60
8936;DHT22;4503;47.810;13.072;2022-08-30T02:31:51;19.80;90.70
8936;DHT22;4503;47.810;13.072;2022-08-30T02:34:17;19.80;91.10
8936;DHT22;4503;47.810;13.072;2022-08-30T02:36:44;19.80;90.80
8936;DHT22;4503;47.810;13.072;2022-08-30T02:39:12;19.80;90.80
8936;DHT22;4503;47.810;13.072;2022-08-30T02:41:39;19.80;90.90
8936;DHT22;4503;47.810;13.072;2022-08-30T02:44:07;19.80;91.00
8936;DHT22;4503;47.810;13.072;2022-08-30T02:46:35;19.80;91.00
8936;DHT22;4503;47.810;13.072;2022-08-30T02:49:02;19.80;91.00
8936;DHT22;4503;47.810;13.072;2022-08-30T02:51:29;19.80;91.10
8936;DHT22;4503;47.810;13.072;2022-08-30T02:53:55;19.80;91.10
8936;DHT22;4503;47.810;13.072;2022-08-30T02:56:21;19.80;91.20
8936;DHT22;4503;47.810;13.072;2022-08-30T02:58:47;19.80;91.20
8936;DHT22;4503;47.810;13.072;2022-08-30T03:01:14;19.80;91.20
8936;DHT22;4503;47.810;13.072;2022-08-30T03:03:42;19.80;91.20
8936;DHT22;4503;47.810;13.072;2022-08-30T03:06:10;19.80;91.20
8936;DHT22;4503;47.810;13.072;2022-08-30T03:08:36;19.80;91.20
8936;DHT22;4503;47.810;13.072;2022-08-30T03:11:02;19.80;91.10
8936;DHT22;4503;47.810;13.072;2022-08-30T03:13:28;19.80;91.20
8936;DHT22;4503;47.810;13.072;2022-08-30T03:15:56;19.80;91.20
8936;DHT22;4503;47.810;13.072;2022-08-30T03:22:34;19.80;91.30
8936;DHT22;4503;47.810;13.072;2022-08-30T03:25:00;19.70;91.20
8936;DHT22;4503;47.810;13.072;2022-08-30T03:27:27;19.70;91.30
8936;DHT22;4503;47.810;13.072;2022-08-30T03:29:54;19.70;91.30
8936;DHT22;4503;47.810;13.072;2022-08-30T03:32:21;19.70;91.30
8936;DHT22;4503;47.810;13.072;2022-08-30T03:34:47;19.60;91.30
8936;DHT22;4503;47.810;13.072;2022-08-30T03:37:14;19.70;91.40
8936;DHT22;4503;47.810;13.072;2022-08-30T03:39:41;19.60;91.30
8936;DHT22;4503;47.810;13.072;2022-08-30T03:42:09;19.60;91.40
8936;DHT22;4503;47.810;13.072;2022-08-30T03:44:36;19.60;91.40
8936;DHT22;4503;47.810;13.072;2022-08-30T03:47:03;19.60;91.40
8936;DHT22;4503;47.810;13.072;2022-08-30T03:49:30;19.60;91.50
8936;DHT22;4503;47.810;13.072;2022-08-30T03:51:56;19.60;91.50
8936;DHT22;4503;47.810;13.072;2022-08-30T03:54:22;19.60;91.40
8936;DHT22;4503;47.810;13.072;2022-08-30T03:56:48;19.50;91.50
8936;DHT22;4503;47.810;13.072;2022-08-30T03:59:14;19.50;91.50
8936;DHT22;4503;47.810;13.072;2022-08-30T04:01:40;19.50;91.50
8936;DHT22;4503;47.810;13.072;2022-08-30T04:04:07;19.50;91.50
8936;DHT22;4503;47.810;13.072;2022-08-30T04:06:33;19.50;91.50
8936;DHT22;4503;47.810;13.072;2022-08-30T04:08:59;19.50;91.50
8936;DHT22;4503;47.810;13.072;2022-08-30T04:11:26;19.50;91.60
8936;DHT22;4503;47.810;13.072;2022-08-30T04:13:53;19.50;91.60
8936;DHT22;4503;47.810;13.072;2022-08-30T04:16:21;19.40;91.60
8936;DHT22;4503;47.810;13.072;2022-08-30T04:18:48;19.40;91.70
8936;DHT22;4503;47.810;13.072;2022-08-30T04:21:14;19.40;91.70
8936;DHT22;4503;47.810;13.072;2022-08-30T04:23:41;19.40;91.80
8936;DHT22;4503;47.810;13.072;2022-08-30T04:26:08;19.40;91.80
8936;DHT22;4503;47.810;13.072;2022-08-30T04:28:34;19.40;91.80
8936;DHT22;4503;47.810;13.072;2022-08-30T04:31:09;19.40;91.80
8936;DHT22;4503;47.810;13.072;2022-08-30T04:33:38;19.40;91.80
8936;DHT22;4503;47.810;13.072;2022-08-30T04:36:07;19.40;91.90
8936;DHT22;4503;47.810;13.072;2022-08-30T04:38:35;19.40;91.90
8936;DHT22;4503;47.810;13.072;2022-08-30T04:41:07;19.40;92.00
8936;DHT22;4503;47.810;13.072;2022-08-30T04:43:42;19.40;92.00
8936;DHT22;4503;47.810;13.072;2022-08-30T04:46:10;19.40;92.10
8936;DHT22;4503;47.810;13.072;2022-08-30T04:48:38;19.40;92.20
8936;DHT22;4503;47.810;13.072;2022-08-30T04:51:11;19.40;92.30
8936;DHT22;4503;47.810;13.072;2022-08-30T04:53:39;19.40;92.40
8936;DHT22;4503;47.810;13.072;2022-08-30T04:56:11;19.40;92.40
8936;DHT22;4503;47.810;13.072;2022-08-30T04:58:41;19.40;92.50
8936;DHT22;4503;47.810;13.072;2022-08-30T05:01:23;19.50;92.50
8936;DHT22;4503;47.810;13.072;2022-08-30T05:03:52;19.50;92.50
8936;DHT22;4503;47.810;13.072;2022-08-30T05:06:20;19.50;92.50
8936;DHT22;4503;47.810;13.072;2022-08-30T05:08:48;19.50;92.50
8936;DHT22;4503;47.810;13.072;2022-08-30T05:11:15;19.60;92.50
8936;DHT22;4503;47.810;13.072;2022-08-30T05:13:42;19.60;92.50
8936;DHT22;4503;47.810;13.072;2022-08-30T05:16:09;19.60;92.50
8936;DHT22;4503;47.810;13.072;2022-08-30T05:22:16;19.60;92.50
8936;DHT22;4503;47.810;13.072;2022-08-30T05:24:42;19.60;92.40
8936;DHT22;4503;47.810;13.072;2022-08-30T05:27:07;19.60;92.50
8936;DHT22;4503;47.810;13.072;2022-08-30T05:29:33;19.60;92.60
8936;DHT22;4503;47.810;13.072;2022-08-30T05:32:00;19.60;92.60
8936;DHT22;4503;47.810;13.072;2022-08-30T05:34:29;19.60;92.70
8936;DHT22;4503;47.810;13.072;2022-08-30T05:36:55;19.60;92.70
8936;DHT22;4503;47.810;13.072;2022-08-30T05:39:21;19.70;92.80
8936;DHT22;4503;47.810;13.072;2022-08-30T05:41:47;19.70;92.80
8936;DHT22;4503;47.810;13.072;2022-08-30T05:44:12;19.70;92.80
8936;DHT22;4503;47.810;13.072;2022-08-30T05:46:38;19.70;92.80
8936;DHT22;4503;47.810;13.072;2022-08-30T05:49:10;19.60;92.70
8936;DHT22;4503;47.810;13.072;2022-08-30T05:51:36;19.60;92.70
8936;DHT22;4503;47.810;13.072;2022-08-30T05:54:03;19.60;92.80
8936;DHT22;4503;47.810;13.072;2022-08-30T05:56:33;19.50;92.80
8936;DHT22;4503;47.810;13.072;2022-08-30T05:59:01;19.40;92.80
8936;DHT22;4503;47.810;13.072;2022-08-30T06:01:37;19.40;92.90
8936;DHT22;4503;47.810;13.072;2022-08-30T06:04:06;19.40;93.10
8936;DHT22;4503;47.810;13.072;2022-08-30T06:06:35;19.40;93.20
8936;DHT22;4503;47.810;13.072;2022-08-30T06:09:05;19.40;93.30
8936;DHT22;4503;47.810;13.072;2022-08-30T06:11:32;19.50;93.40
8936;DHT22;4503;47.810;13.072;2022-08-30T06:13:59;19.50;93.40
8936;DHT22;4503;47.810;13.072;2022-08-30T06:16:26;19.60;93.40
8936;DHT22;4503;47.810;13.072;2022-08-30T06:22:33;19.60;93.40
8936;DHT22;4503;47.810;13.072;2022-08-30T06:24:59;19.60;93.40
8936;DHT22;4503;47.810;13.072;2022-08-30T06:27:25;19.70;93.50
8936;DHT22;4503;47.810;13.072;2022-08-30T06:29:51;19.70;93.50
8936;DHT22;4503;47.810;13.072;2022-08-30T06:32:17;19.70;93.50
8936;DHT22;4503;47.810;13.072;2022-08-30T06:34:43;19.80;93.70
8936;DHT22;4503;47.810;13.072;2022-08-30T06:37:10;19.80;93.70
8936;DHT22;4503;47.810;13.072;2022-08-30T06:39:35;19.90;93.80
8936;DHT22;4503;47.810;13.072;2022-08-30T06:42:01;19.90;93.80
8936;DHT22;4503;47.810;13.072;2022-08-30T06:44:27;20.00;93.90
8936;DHT22;4503;47.810;13.072;2022-08-30T06:46:53;20.00;93.90
8936;DHT22;4503;47.810;13.072;2022-08-30T06:49:20;20.10;94.00
8936;DHT22;4503;47.810;13.072;2022-08-30T06:51:46;20.20;94.00
8936;DHT22;4503;47.810;13.072;2022-08-30T06:54:12;20.20;94.00
8936;DHT22;4503;47.810;13.072;2022-08-30T06:56:38;20.30;94.10
8936;DHT22;4503;47.810;13.072;2022-08-30T06:59:05;20.30;94.20
8936;DHT22;4503;47.810;13.072;2022-08-30T07:01:31;20.40;94.30
8936;DHT22;4503;47.810;13.072;2022-08-30T07:03:58;20.40;94.30
8936;DHT22;4503;47.810;13.072;2022-08-30T07:06:27;20.50;94.50
8936;DHT22;4503;47.810;13.072;2022-08-30T07:08:53;20.60;94.50
8936;DHT22;4503;47.810;13.072;2022-08-30T07:11:35;20.70;94.60
8936;DHT22;4503;47.810;13.072;2022-08-30T07:14:04;20.80;94.70
8936;DHT22;4503;47.810;13.072;2022-08-30T07:16:30;20.90;94.80
8936;DHT22;4503;47.810;13.072;2022-08-30T07:22:38;21.10;94.80
8936;DHT22;4503;47.810;13.072;2022-08-30T07:25:04;21.20;94.90
8936;DHT22;4503;47.810;13.072;2022-08-30T07:27:30;21.30;95.00
8936;DHT22;4503;47.810;13.072;2022-08-30T07:29:56;21.40;95.00
8936;DHT22;4503;47.810;13.072;2022-08-30T07:32:23;21.50;95.10
8936;DHT22;4503;47.810;13.072;2022-08-30T07:34:50;21.60;95.00
8936;DHT22;4503;47.810;13.072;2022-08-30T07:37:15;21.70;94.90
8936;DHT22;4503;47.810;13.072;2022-08-30T07:39:42;21.70;95.00
8936;DHT22;4503;47.810;13.072;2022-08-30T07:42:07;21.90;95.10
8936;DHT22;4503;47.810;13.072;2022-08-30T07:44:33;21.90;95.10
8936;DHT22;4503;47.810;13.072;2022-08-30T07:46:59;22.10;95.20
8936;DHT22;4503;47.810;13.072;2022-08-30T07:49:25;22.10;95.10
8936;DHT22;4503;47.810;13.072;2022-08-30T07:51:51;22.20;95.10
8936;DHT22;4503;47.810;13.072;2022-08-30T07:54:17;22.30;95.20
8936;DHT22;4503;47.810;13.072;2022-08-30T07:56:42;22.40;95.20
8936;DHT22;4503;47.810;13.072;2022-08-30T07:59:08;22.50;95.20
8936;DHT22;4503;47.810;13.072;2022-08-30T08:01:37;22.60;95.20
8936;DHT22;4503;47.810;13.072;2022-08-30T08:04:03;22.70;95.20
8936;DHT22;4503;47.810;13.072;2022-08-30T08:06:29;22.80;95.20
8936;DHT22;4503;47.810;13.072;2022-08-30T08:08:55;22.90;95.40
8936;DHT22;4503;47.810;13.072;2022-08-30T08:11:27;23.00;95.10
8936;DHT22;4503;47.810;13.072;2022-08-30T08:13:54;23.10;95.00
8936;DHT22;4503;47.810;13.072;2022-08-30T08:16:22;23.20;95.00
8936;DHT22;4503;47.810;13.072;2022-08-30T08:18:50;23.30;95.00
8936;DHT22;4503;47.810;13.072;2022-08-30T08:21:17;23.40;94.90
8936;DHT22;4503;47.810;13.072;2022-08-30T08:23:43;23.50;95.20
8936;DHT22;4503;47.810;13.072;2022-08-30T08:26:09;23.60;95.00
8936;DHT22;4503;47.810;13.072;2022-08-30T08:28:35;23.70;94.90
8936;DHT22;4503;47.810;13.072;2022-08-30T08:31:01;23.80;94.90
8936;DHT22;4503;47.810;13.072;2022-08-30T08:33:27;23.90;94.80
8936;DHT22;4503;47.810;13.072;2022-08-30T08:35:54;24.00;94.90
8936;DHT22;4503;47.810;13.072;2022-08-30T08:38:20;24.10;94.60
8936;DHT22;4503;47.810;13.072;2022-08-30T08:41:02;24.20;94.60
8936;DHT22;4503;47.810;13.072;2022-08-30T08:43:36;24.30;94.10
8936;DHT22;4503;47.810;13.072;2022-08-30T08:48:45;24.60;94.30
8936;DHT22;4503;47.810;13.072;2022-08-30T08:51:17;24.70;94.40
8936;DHT22;4503;47.810;13.072;2022-08-30T08:54:15;24.80;94.50
8936;DHT22;4503;47.810;13.072;2022-08-30T08:56:43;24.90;94.40
8936;DHT22;4503;47.810;13.072;2022-08-30T08:59:10;25.00;94.10
8936;DHT22;4503;47.810;13.072;2022-08-30T09:01:39;25.10;93.90
8936;DHT22;4503;47.810;13.072;2022-08-30T09:04:16;25.20;94.10
8936;DHT22;4503;47.810;13.072;2022-08-30T09:07:37;25.30;93.80
8936;DHT22;4503;47.810;13.072;2022-08-30T09:09:45;25.30;93.70
8936;DHT22;4503;47.810;13.072;2022-08-30T09:12:12;25.50;93.90
8936;DHT22;4503;47.810;13.072;2022-08-30T09:14:42;25.60;93.90
8936;DHT22;4503;47.810;13.072;2022-08-30T09:24:20;25.90;93.40
8936;DHT22;4503;47.810;13.072;2022-08-30T09:26:46;26.00;93.50
8936;DHT22;4503;47.810;13.072;2022-08-30T09:29:17;26.10;93.50
8936;DHT22;4503;47.810;13.072;2022-08-30T09:31:50;26.10;93.10
8936;DHT22;4503;47.810;13.072;2022-08-30T09:34:21;26.20;93.00
8936;DHT22;4503;47.810;13.072;2022-08-30T09:36:53;26.30;92.90
8936;DHT22;4503;47.810;13.072;2022-08-30T09:39:33;26.40;93.00
8936;DHT22;4503;47.810;13.072;2022-08-30T09:42:15;26.50;93.10
8936;DHT22;4503;47.810;13.072;2022-08-30T09:44:45;26.50;92.60
8936;DHT22;4503;47.810;13.072;2022-08-30T09:47:39;26.60;92.90
8936;DHT22;4503;47.810;13.072;2022-08-30T09:50:13;26.70;92.60
8936;DHT22;4503;47.810;13.072;2022-08-30T09:53:12;26.80;92.30
8936;DHT22;4503;47.810;13.072;2022-08-30T09:56:09;26.90;92.40
8936;DHT22;4503;47.810;13.072;2022-08-30T09:59:14;27.00;92.60
8936;DHT22;4503;47.810;13.072;2022-08-30T10:02:05;27.20;92.50
8936;DHT22;4503;47.810;13.072;2022-08-30T10:07:44;27.40;92.20
8936;DHT22;4503;47.810;13.072;2022-08-30T10:11:19;27.50;92.20
8936;DHT22;4503;47.810;13.072;2022-08-30T10:13:56;27.60;91.30
8936;DHT22;4503;47.810;13.072;2022-08-30T10:24:39;27.90;90.50
8936;DHT22;4503;47.810;13.072;2022-08-30T10:27:25;27.90;90.80
8936;DHT22;4503;47.810;13.072;2022-08-30T10:30:14;28.00;90.80
8936;DHT22;4503;47.810;13.072;2022-08-30T10:33:32;28.10;91.00
8936;DHT22;4503;47.810;13.072;2022-08-30T10:35:59;28.10;91.00
8936;DHT22;4503;47.810;13.072;2022-08-30T10:38:32;28.20;90.80
8936;DHT22;4503;47.810;13.072;2022-08-30T10:44:33;28.30;90.50
8936;DHT22;4503;47.810;13.072;2022-08-30T10:50:17;28.40;88.60
8936;DHT22;4503;47.810;13.072;2022-08-30T10:53:03;28.50;87.50
8936;DHT22;4503;47.810;13.072;2022-08-30T10:55:47;28.60;88.00
8936;DHT22;4503;47.810;13.072;2022-08-30T10:58:17;28.60;88.60
8936;DHT22;4503;47.810;13.072;2022-08-30T11:12:57;28.90;83.60
8936;DHT22;4503;47.810;13.072;2022-08-30T11:15:34;28.90;84.10
8936;DHT22;4503;47.810;13.072;2022-08-30T11:18:16;29.00;84.10
8936;DHT22;4503;47.810;13.072;2022-08-30T11:20:50;29.10;84.10
8936;DHT22;4503;47.810;13.072;2022-08-30T11:23:26;29.10;82.90
8936;DHT22;4503;47.810;13.072;2022-08-30T11:26:08;29.20;83.60
8936;DHT22;4503;47.810;13.072;2022-08-30T11:33:47;29.60;82.90
8936;DHT22;4503;47.810;13.072;2022-08-30T11:39:09;30.10;83.70
8936;DHT22;4503;47.810;13.072;2022-08-30T11:44:28;30.80;81.50
8936;DHT22;4503;47.810;13.072;2022-08-30T11:47:01;31.30;79.20
8936;DHT22;4503;47.810;13.072;2022-08-30T11:56:21;32.40;74.20
8936;DHT22;4503;47.810;13.072;2022-08-30T12:01:55;32.90;71.20
8936;DHT22;4503;47.810;13.072;2022-08-30T12:04:26;33.10;70.20
8936;DHT22;4503;47.810;13.072;2022-08-30T12:07:09;33.10;69.40
8936;DHT22;4503;47.810;13.072;2022-08-30T12:12:52;33.40;69.50
8936;DHT22;4503;47.810;13.072;2022-08-30T12:18:47;33.90;66.00
8936;DHT22;4503;47.810;13.072;2022-08-30T12:26:33;34.20;63.70
8936;DHT22;4503;47.810;13.072;2022-08-30T12:29:25;34.30;63.30
8936;DHT22;4503;47.810;13.072;2022-08-30T12:32:01;34.40;61.00
8936;DHT22;4503;47.810;13.072;2022-08-30T12:37:29;34.50;63.20
8936;DHT22;4503;47.810;13.072;2022-08-30T12:40:20;34.50;62.40
8936;DHT22;4503;47.810;13.072;2022-08-30T12:42:54;34.80;61.00
8936;DHT22;4503;47.810;13.072;2022-08-30T12:45:42;34.90;62.40
8936;DHT22;4503;47.810;13.072;2022-08-30T12:48:13;35.10;61.80
8936;DHT22;4503;47.810;13.072;2022-08-30T12:50:49;35.10;61.00
8936;DHT22;4503;47.810;13.072;2022-08-30T12:53:36;35.20;61.10
8936;DHT22;4503;47.810;13.072;2022-08-30T12:56:12;35.20;61.60
8936;DHT22;4503;47.810;13.072;2022-08-30T12:58:51;35.30;60.10
8936;DHT22;4503;47.810;13.072;2022-08-30T13:04:20;35.30;59.20
8936;DHT22;4503;47.810;13.072;2022-08-30T13:07:00;35.20;58.50
8936;DHT22;4503;47.810;13.072;2022-08-30T13:12:02;35.20;57.10
8936;DHT22;4503;47.810;13.072;2022-08-30T13:14:37;35.10;58.20
8936;DHT22;4503;47.810;13.072;2022-08-30T13:17:09;35.10;56.90
8936;DHT22;4503;47.810;13.072;2022-08-30T13:20:06;35.10;58.60
8936;DHT22;4503;47.810;13.072;2022-08-30T13:23:05;35.10;58.40
8936;DHT22;4503;47.810;13.072;2022-08-30T13:25:37;35.20;57.00
8936;DHT22;4503;47.810;13.072;2022-08-30T13:28:06;35.20;58.60
8936;DHT22;4503;47.810;13.072;2022-08-30T13:30:32;35.20;57.70
8936;DHT22;4503;47.810;13.072;2022-08-30T13:32:59;35.20;57.00
8936;DHT22;4503;47.810;13.072;2022-08-30T13:35:29;35.10;56.60
8936;DHT22;4503;47.810;13.072;2022-08-30T13:37:56;35.10;57.00
8936;DHT22;4503;47.810;13.072;2022-08-30T13:40:26;35.10;55.40
8936;DHT22;4503;47.810;13.072;2022-08-30T13:42:52;35.00;56.10
8936;DHT22;4503;47.810;13.072;2022-08-30T13:45:19;35.00;55.30
8936;DHT22;4503;47.810;13.072;2022-08-30T13:47:47;34.90;55.60
8936;DHT22;4503;47.810;13.072;2022-08-30T13:50:14;34.80;55.70
8936;DHT22;4503;47.810;13.072;2022-08-30T13:52:40;34.80;55.80
8936;DHT22;4503;47.810;13.072;2022-08-30T13:55:06;34.90;55.50
8936;DHT22;4503;47.810;13.072;2022-08-30T13:57:33;34.90;56.00
8936;DHT22;4503;47.810;13.072;2022-08-30T13:59:59;34.90;56.10
8936;DHT22;4503;47.810;13.072;2022-08-30T14:02:24;34.90;56.10
8936;DHT22;4503;47.810;13.072;2022-08-30T14:04:50;35.00;56.00
8936;DHT22;4503;47.810;13.072;2022-08-30T14:07:16;35.10;55.90
8936;DHT22;4503;47.810;13.072;2022-08-30T14:09:43;35.20;55.50
8936;DHT22;4503;47.810;13.072;2022-08-30T14:12:08;35.30;56.00
8936;DHT22;4503;47.810;13.072;2022-08-30T14:14:35;35.40;56.10
8936;DHT22;4503;47.810;13.072;2022-08-30T14:17:01;35.50;55.40
8936;DHT22;4503;47.810;13.072;2022-08-30T14:19:27;35.60;55.70
8936;DHT22;4503;47.810;13.072;2022-08-30T14:21:53;35.60;54.80
8936;DHT22;4503;47.810;13.072;2022-08-30T14:24:19;35.70;54.40
8936;DHT22;4503;47.810;13.072;2022-08-30T14:26:47;35.70;54.10
8936;DHT22;4503;47.810;13.072;2022-08-30T14:29:16;35.70;53.90
8936;DHT22;4503;47.810;13.072;2022-08-30T14:31:46;35.70;53.50
8936;DHT22;4503;47.810;13.072;2022-08-30T14:34:14;35.70;53.90
8936;DHT22;4503;47.810;13.072;2022-08-30T14:36:44;35.70;54.80
8936;DHT22;4503;47.810;13.072;2022-08-30T14:39:14;35.80;54.40
8936;DHT22;4503;47.810;13.072;2022-08-30T14:41:45;36.00;54.20
8936;DHT22;4503;47.810;13.072;2022-08-30T14:44:14;36.10;54.50
8936;DHT22;4503;47.810;13.072;2022-08-30T14:46:42;36.10;54.10
8936;DHT22;4503;47.810;13.072;2022-08-30T14:49:09;36.10;54.20
8936;DHT22;4503;47.810;13.072;2022-08-30T14:51:37;36.10;54.00
8936;DHT22;4503;47.810;13.072;2022-08-30T14:54:03;36.20;54.10
8936;DHT22;4503;47.810;13.072;2022-08-30T14:56:29;36.30;54.70
8936;DHT22;4503;47.810;13.072;2022-08-30T14:58:56;36.50;55.60
8936;DHT22;4503;47.810;13.072;2022-08-30T15:01:28;36.70;54.40
8936;DHT22;4503;47.810;13.072;2022-08-30T15:03:55;36.90;55.60
8936;DHT22;4503;47.810;13.072;2022-08-30T15:06:22;37.00;54.70
8936;DHT22;4503;47.810;13.072;2022-08-30T15:08:48;37.20;53.90
8936;DHT22;4503;47.810;13.072;2022-08-30T15:11:17;37.30;54.20
8936;DHT22;4503;47.810;13.072;2022-08-30T15:13:46;37.30;53.80
8936;DHT22;4503;47.810;13.072;2022-08-30T15:16:15;37.50;53.50
8936;DHT22;4503;47.810;13.072;2022-08-30T15:22:23;37.50;53.80
8936;DHT22;4503;47.810;13.072;2022-08-30T15:24:49;37.70;53.70
8936;DHT22;4503;47.810;13.072;2022-08-30T15:27:15;38.00;54.20
8936;DHT22;4503;47.810;13.072;2022-08-30T15:29:41;38.20;53.20
8936;DHT22;4503;47.810;13.072;2022-08-30T15:32:06;38.30;52.40
8936;DHT22;4503;47.810;13.072;2022-08-30T15:34:33;38.30;52.40
8936;DHT22;4503;47.810;13.072;2022-08-30T15:36:59;38.30;52.10
8936;DHT22;4503;47.810;13.072;2022-08-30T15:43:06;38.10;51.00
8936;DHT22;4503;47.810;13.072;2022-08-30T15:45:32;37.90;51.50
8936;DHT22;4503;47.810;13.072;2022-08-30T15:48:01;37.70;50.80
8936;DHT22;4503;47.810;13.072;2022-08-30T15:50:27;37.50;50.70
8936;DHT22;4503;47.810;13.072;2022-08-30T15:52:53;37.60;51.90
8936;DHT22;4503;47.810;13.072;2022-08-30T15:55:19;37.50;51.50
8936;DHT22;4503;47.810;13.072;2022-08-30T15:57:45;37.50;51.40
8936;DHT22;4503;47.810;13.072;2022-08-30T16:00:12;37.30;50.80
8936;DHT22;4503;47.810;13.072;2022-08-30T16:02:39;37.10;50.40
8936;DHT22;4503;47.810;13.072;2022-08-30T16:05:05;36.70;50.00
8936;DHT22;4503;47.810;13.072;2022-08-30T16:07:31;36.30;50.40
8936;DHT22;4503;47.810;13.072;2022-08-30T16:13:38;36.00;51.80
8936;DHT22;4503;47.810;13.072;2022-08-30T16:16:06;36.10;52.70
8936;DHT22;4503;47.810;13.072;2022-08-30T16:18:33;36.20;53.00
8936;DHT22;4503;47.810;13.072;2022-08-30T16:21:06;36.60;53.30
8936;DHT22;4503;47.810;13.072;2022-08-30T16:23:38;36.80;52.50
8936;DHT22;4503;47.810;13.072;2022-08-30T16:26:06;37.00;52.90
8936;DHT22;4503;47.810;13.072;2022-08-30T16:28:33;37.30;53.40
8936;DHT22;4503;47.810;13.072;2022-08-30T16:31:01;37.70;53.30
8936;DHT22;4503;47.810;13.072;2022-08-30T16:33:29;37.90;53.00
8936;DHT22;4503;47.810;13.072;2022-08-30T16:35:56;38.10;52.50
8936;DHT22;4503;47.810;13.072;2022-08-30T16:38:24;38.30;52.40
8936;DHT22;4503;47.810;13.072;2022-08-30T16:40:51;38.40;51.80
8936;DHT22;4503;47.810;13.072;2022-08-30T16:43:19;38.50;52.10
8936;DHT22;4503;47.810;13.072;2022-08-30T16:45:46;38.60;51.60
8936;DHT22;4503;47.810;13.072;2022-08-30T16:48:13;38.60;51.50
8936;DHT22;4503;47.810;13.072;2022-08-30T16:50:42;38.50;51.20
8936;DHT22;4503;47.810;13.072;2022-08-30T16:53:10;38.40;50.80
8936;DHT22;4503;47.810;13.072;2022-08-30T16:55:38;38.40;50.50
8936;DHT22;4503;47.810;13.072;2022-08-30T16:58:07;38.20;50.00
8936;DHT22;4503;47.810;13.072;2022-08-30T17:00:36;38.00;50.10
8936;DHT22;4503;47.810;13.072;2022-08-30T17:03:04;37.80;49.90
8936;DHT22;4503;47.810;13.072;2022-08-30T17:05:33;37.50;49.40
8936;DHT22;4503;47.810;13.072;2022-08-30T17:08:02;37.20;49.00
8936;DHT22;4503;47.810;13.072;2022-08-30T17:14:09;36.40;49.30
8936;DHT22;4503;47.810;13.072;2022-08-30T17:16:35;35.80;48.90
8936;DHT22;4503;47.810;13.072;2022-08-30T17:19:03;35.30;48.70
8936;DHT22;4503;47.810;13.072;2022-08-30T17:21:31;34.90;49.00
8936;DHT22;4503;47.810;13.072;2022-08-30T17:23:58;34.40;49.30
8936;DHT22;4503;47.810;13.072;2022-08-30T17:26:25;33.90;49.50
8936;DHT22;4503;47.810;13.072;2022-08-30T17:28:51;33.40;49.80
8936;DHT22;4503;47.810;13.072;2022-08-30T17:31:17;33.00;50.20
8936;DHT22;4503;47.810;13.072;2022-08-30T17:33:43;32.60;50.70
8936;DHT22;4503;47.810;13.072;2022-08-30T17:36:10;32.20;51.00
8936;DHT22;4503;47.810;13.072;2022-08-30T17:38:36;31.80;51.40
8936;DHT22;4503;47.810;13.072;2022-08-30T17:41:07;31.40;51.80
8936;DHT22;4503;47.810;13.072;2022-08-30T17:43:36;31.10;52.00
8936;DHT22;4503;47.810;13.072;2022-08-30T17:46:05;30.80;52.30
8936;DHT22;4503;47.810;13.072;2022-08-30T17:48:33;30.50;52.50
8936;DHT22;4503;47.810;13.072;2022-08-30T17:50:59;30.10;52.60
8936;DHT22;4503;47.810;13.072;2022-08-30T17:53:25;29.80;52.90
8936;DHT22;4503;47.810;13.072;2022-08-30T17:55:52;29.50;53.20
8936;DHT22;4503;47.810;13.072;2022-08-30T17:58:18;29.20;53.40
8936;DHT22;4503;47.810;13.072;2022-08-30T18:00:43;28.90;53.70
8936;DHT22;4503;47.810;13.072;2022-08-30T18:03:09;28.70;54.60